sensor_id;sensor_type;location;lat;lon;timestamp;P1;durP1;ratioP1;P2;durP2;ratioP2
63157;SDS011;49381;49.338;8.794;2022-10-16T00:00:38;4.93;;;1.58;;
63157;SDS011;49381;49.338;8.794;2022-10-16T00:02:39;6.45;;;2.20;;
63157;SDS011;49381;49.338;8.794;2022-10-16T00:04:40;3.67;;;1.75;;
63157;SDS011;49381;49.338;8.794;2022-10-16T00:06:40;5.15;;;2.08;;
63157;SDS011;49381;49.338;8.794;2022-10-16T00:08:41;6.85;;;2.05;;
63157;SDS011;49381;49.338;8.794;2022-10-16T00:10:41;3.92;;;2.45;;
63157;SDS011;49381;49.338;8.794;2022-10-16T00:12:43;5.25;;;2.08;;
63157;SDS011;49381;49.338;8.794;2022-10-16T00:14:43;8.48;;;1.80;;
63157;SDS011;49381;49.338;8.794;2022-10-16T00:16:44;5.55;;;1.75;;
63157;SDS011;49381;49.338;8.794;2022-10-16T00:18:44;4.47;;;1.85;;
63157;SDS011;49381;49.338;8.794;2022-10-16T00:20:44;7.03;;;1.98;;
63157;SDS011;49381;49.338;8.794;2022-10-16T00:22:45;4.72;;;1.92;;
63157;SDS011;49381;49.338;8.794;2022-10-16T00:24:45;5.00;;;1.95;;
63157;SDS011;49381;49.338;8.794;2022-10-16T00:26:45;8.88;;;3.22;;
63157;SDS011;49381;49.338;8.794;2022-10-16T00:28:51;9.57;;;2.60;;
63157;SDS011;49381;49.338;8.794;2022-10-16T00:30:52;4.15;;;2.50;;
63157;SDS011;49381;49.338;8.794;2022-10-16T00:32:53;5.63;;;2.70;;
63157;SDS011;49381;49.338;8.794;2022-10-16T00:34:53;6.93;;;2.53;;
63157;SDS011;49381;49.338;8.794;2022-10-16T00:36:54;8.07;;;2.90;;
63157;SDS011;49381;49.338;8.794;2022-10-16T00:38:54;4.75;;;2.22;;
63157;SDS011;49381;49.338;8.794;2022-10-16T00:40:56;3.22;;;2.17;;
63157;SDS011;49381;49.338;8.794;2022-10-16T00:42:56;4.18;;;1.80;;
63157;SDS011;49381;49.338;8.794;2022-10-16T00:44:58;5.80;;;1.77;;
63157;SDS011;49381;49.338;8.794;2022-10-16T00:46:58;4.75;;;1.95;;
63157;SDS011;49381;49.338;8.794;2022-10-16T00:49:00;4.93;;;2.13;;
63157;SDS011;49381;49.338;8.794;2022-10-16T00:51:02;5.60;;;1.75;;
63157;SDS011;49381;49.338;8.794;2022-10-16T00:53:05;7.57;;;1.90;;
63157;SDS011;49381;49.338;8.794;2022-10-16T00:55:06;5.45;;;1.40;;
63157;SDS011;49381;49.338;8.794;2022-10-16T00:57:08;12.48;;;1.92;;
63157;SDS011;49381;49.338;8.794;2022-10-16T00:59:10;6.55;;;1.55;;
63157;SDS011;49381;49.338;8.794;2022-10-16T01:01:16;4.03;;;1.50;;
63157;SDS011;49381;49.338;8.794;2022-10-16T01:03:24;4.03;;;1.95;;
63157;SDS011;49381;49.338;8.794;2022-10-16T01:05:28;2.25;;;1.40;;
63157;SDS011;49381;49.338;8.794;2022-10-16T01:07:36;4.93;;;1.90;;
63157;SDS011;49381;49.338;8.794;2022-10-16T01:09:47;8.88;;;1.80;;
63157;SDS011;49381;49.338;8.794;2022-10-16T01:11:57;3.75;;;1.98;;
63157;SDS011;49381;49.338;8.794;2022-10-16T01:14:06;3.92;;;1.45;;
63157;SDS011;49381;49.338;8.794;2022-10-16T01:16:13;9.73;;;2.05;;
63157;SDS011;49381;49.338;8.794;2022-10-16T01:18:21;4.35;;;1.40;;
63157;SDS011;49381;49.338;8.794;2022-10-16T01:20:30;6.32;;;1.67;;
63157;SDS011;49381;49.338;8.794;2022-10-16T01:22:35;4.90;;;1.77;;
63157;SDS011;49381;49.338;8.794;2022-10-16T01:24:41;8.77;;;1.50;;
63157;SDS011;49381;49.338;8.794;2022-10-16T01:26:50;10.18;;;1.67;;
63157;SDS011;49381;49.338;8.794;2022-10-16T01:29:03;8.93;;;1.70;;
63157;SDS011;49381;49.338;8.794;2022-10-16T01:33:29;9.73;;;1.90;;
63157;SDS011;49381;49.338;8.794;2022-10-16T01:37:36;3.47;;;1.30;;
63157;SDS011;49381;49.338;8.794;2022-10-16T01:39:41;6.00;;;1.40;;
63157;SDS011;49381;49.338;8.794;2022-10-16T01:41:45;4.47;;;1.88;;
63157;SDS011;49381;49.338;8.794;2022-10-16T01:43:53;3.05;;;1.85;;
63157;SDS011;49381;49.338;8.794;2022-10-16T01:45:59;4.38;;;1.60;;
63157;SDS011;49381;49.338;8.794;2022-10-16T01:48:01;3.72;;;1.70;;
63157;SDS011;49381;49.338;8.794;2022-10-16T01:50:04;3.92;;;1.58;;
63157;SDS011;49381;49.338;8.794;2022-10-16T01:54:25;3.03;;;1.65;;
63157;SDS011;49381;49.338;8.794;2022-10-16T01:56:30;4.65;;;1.20;;
63157;SDS011;49381;49.338;8.794;2022-10-16T01:58:33;8.90;;;1.40;;
63157;SDS011;49381;49.338;8.794;2022-10-16T02:00:42;4.00;;;1.35;;
63157;SDS011;49381;49.338;8.794;2022-10-16T02:02:47;3.47;;;1.55;;
63157;SDS011;49381;49.338;8.794;2022-10-16T02:05:02;3.92;;;2.00;;
63157;SDS011;49381;49.338;8.794;2022-10-16T02:07:22;6.13;;;1.60;;
63157;SDS011;49381;49.338;8.794;2022-10-16T02:09:25;3.05;;;1.58;;
63157;SDS011;49381;49.338;8.794;2022-10-16T02:11:32;5.60;;;1.63;;
63157;SDS011;49381;49.338;8.794;2022-10-16T02:13:39;5.30;;;1.80;;
63157;SDS011;49381;49.338;8.794;2022-10-16T02:15:52;9.50;;;1.70;;
63157;SDS011;49381;49.338;8.794;2022-10-16T02:17:53;3.80;;;1.20;;
63157;SDS011;49381;49.338;8.794;2022-10-16T02:19:53;5.95;;;1.60;;
63157;SDS011;49381;49.338;8.794;2022-10-16T02:21:58;5.45;;;1.65;;
63157;SDS011;49381;49.338;8.794;2022-10-16T02:24:19;6.57;;;1.77;;
63157;SDS011;49381;49.338;8.794;2022-10-16T02:26:31;6.75;;;2.05;;
63157;SDS011;49381;49.338;8.794;2022-10-16T02:28:40;5.25;;;1.92;;
63157;SDS011;49381;49.338;8.794;2022-10-16T02:30:47;8.52;;;1.70;;
63157;SDS011;49381;49.338;8.794;2022-10-16T02:32:51;5.63;;;1.70;;
63157;SDS011;49381;49.338;8.794;2022-10-16T02:34:57;3.75;;;1.52;;
63157;SDS011;49381;49.338;8.794;2022-10-16T02:37:02;5.47;;;1.48;;
63157;SDS011;49381;49.338;8.794;2022-10-16T02:39:04;8.55;;;2.00;;
63157;SDS011;49381;49.338;8.794;2022-10-16T02:41:06;6.30;;;1.75;;
63157;SDS011;49381;49.338;8.794;2022-10-16T02:43:07;5.45;;;1.98;;
63157;SDS011;49381;49.338;8.794;2022-10-16T02:45:16;2.90;;;1.42;;
63157;SDS011;49381;49.338;8.794;2022-10-16T02:47:27;8.10;;;2.35;;
63157;SDS011;49381;49.338;8.794;2022-10-16T02:49:31;6.95;;;2.00;;
63157;SDS011;49381;49.338;8.794;2022-10-16T02:51:31;8.90;;;2.28;;
63157;SDS011;49381;49.338;8.794;2022-10-16T02:53:37;8.73;;;2.13;;
63157;SDS011;49381;49.338;8.794;2022-10-16T02:55:42;7.60;;;1.83;;
63157;SDS011;49381;49.338;8.794;2022-10-16T02:57:43;5.95;;;2.05;;
63157;SDS011;49381;49.338;8.794;2022-10-16T02:59:46;7.50;;;1.67;;
63157;SDS011;49381;49.338;8.794;2022-10-16T03:01:49;8.68;;;2.40;;
63157;SDS011;49381;49.338;8.794;2022-10-16T03:04:04;4.10;;;1.77;;
63157;SDS011;49381;49.338;8.794;2022-10-16T03:06:04;5.63;;;1.50;;
63157;SDS011;49381;49.338;8.794;2022-10-16T03:08:05;3.88;;;1.50;;
63157;SDS011;49381;49.338;8.794;2022-10-16T03:10:10;9.40;;;1.83;;
63157;SDS011;49381;49.338;8.794;2022-10-16T03:12:13;4.85;;;1.55;;
63157;SDS011;49381;49.338;8.794;2022-10-16T03:14:15;4.65;;;1.60;;
63157;SDS011;49381;49.338;8.794;2022-10-16T03:16:15;6.82;;;1.88;;
63157;SDS011;49381;49.338;8.794;2022-10-16T03:18:25;8.63;;;2.15;;
63157;SDS011;49381;49.338;8.794;2022-10-16T03:20:29;4.85;;;1.75;;
63157;SDS011;49381;49.338;8.794;2022-10-16T03:22:36;5.60;;;1.80;;
63157;SDS011;49381;49.338;8.794;2022-10-16T03:26:54;4.53;;;1.58;;
63157;SDS011;49381;49.338;8.794;2022-10-16T03:28:57;3.33;;;1.80;;
63157;SDS011;49381;49.338;8.794;2022-10-16T03:31:04;5.63;;;2.13;;
63157;SDS011;49381;49.338;8.794;2022-10-16T03:33:04;6.13;;;2.05;;
63157;SDS011;49381;49.338;8.794;2022-10-16T03:35:08;9.98;;;2.35;;
63157;SDS011;49381;49.338;8.794;2022-10-16T03:37:10;5.78;;;2.13;;
63157;SDS011;49381;49.338;8.794;2022-10-16T03:39:23;9.30;;;1.80;;
63157;SDS011;49381;49.338;8.794;2022-10-16T03:41:31;5.75;;;1.88;;
63157;SDS011;49381;49.338;8.794;2022-10-16T03:43:37;7.40;;;1.95;;
63157;SDS011;49381;49.338;8.794;2022-10-16T03:45:40;7.90;;;2.35;;
63157;SDS011;49381;49.338;8.794;2022-10-16T03:47:50;5.32;;;2.50;;
63157;SDS011;49381;49.338;8.794;2022-10-16T03:49:50;4.22;;;2.10;;
63157;SDS011;49381;49.338;8.794;2022-10-16T03:51:50;11.02;;;2.30;;
63157;SDS011;49381;49.338;8.794;2022-10-16T03:53:55;5.55;;;2.10;;
63157;SDS011;49381;49.338;8.794;2022-10-16T03:55:59;10.75;;;2.60;;
63157;SDS011;49381;49.338;8.794;2022-10-16T03:57:59;12.13;;;3.03;;
63157;SDS011;49381;49.338;8.794;2022-10-16T04:00:05;6.22;;;2.33;;
63157;SDS011;49381;49.338;8.794;2022-10-16T04:02:13;3.45;;;1.45;;
63157;SDS011;49381;49.338;8.794;2022-10-16T04:04:14;4.32;;;1.90;;
63157;SDS011;49381;49.338;8.794;2022-10-16T04:06:16;6.65;;;2.03;;
63157;SDS011;49381;49.338;8.794;2022-10-16T04:08:21;7.60;;;2.35;;
63157;SDS011;49381;49.338;8.794;2022-10-16T04:10:24;4.57;;;1.95;;
63157;SDS011;49381;49.338;8.794;2022-10-16T04:12:27;5.00;;;1.80;;
63157;SDS011;49381;49.338;8.794;2022-10-16T04:14:29;5.88;;;2.17;;
63157;SDS011;49381;49.338;8.794;2022-10-16T04:16:34;8.13;;;2.60;;
63157;SDS011;49381;49.338;8.794;2022-10-16T04:18:35;3.35;;;1.85;;
63157;SDS011;49381;49.338;8.794;2022-10-16T04:20:35;5.50;;;2.40;;
63157;SDS011;49381;49.338;8.794;2022-10-16T04:22:35;5.78;;;2.10;;
63157;SDS011;49381;49.338;8.794;2022-10-16T04:24:39;5.05;;;1.73;;
63157;SDS011;49381;49.338;8.794;2022-10-16T04:26:44;5.00;;;1.80;;
63157;SDS011;49381;49.338;8.794;2022-10-16T04:28:52;4.93;;;1.95;;
63157;SDS011;49381;49.338;8.794;2022-10-16T04:30:57;4.55;;;1.90;;
63157;SDS011;49381;49.338;8.794;2022-10-16T04:33:08;9.00;;;2.50;;
63157;SDS011;49381;49.338;8.794;2022-10-16T04:35:13;7.95;;;1.98;;
63157;SDS011;49381;49.338;8.794;2022-10-16T04:37:16;5.47;;;1.60;;
63157;SDS011;49381;49.338;8.794;2022-10-16T04:39:25;4.53;;;1.80;;
63157;SDS011;49381;49.338;8.794;2022-10-16T04:41:25;8.45;;;2.30;;
63157;SDS011;49381;49.338;8.794;2022-10-16T04:43:36;5.88;;;2.00;;
63157;SDS011;49381;49.338;8.794;2022-10-16T04:45:42;3.85;;;2.15;;
63157;SDS011;49381;49.338;8.794;2022-10-16T04:47:42;8.02;;;2.10;;
63157;SDS011;49381;49.338;8.794;2022-10-16T04:49:49;4.63;;;1.48;;
63157;SDS011;49381;49.338;8.794;2022-10-16T04:55:55;5.73;;;2.23;;
63157;SDS011;49381;49.338;8.794;2022-10-16T04:58:03;4.13;;;1.65;;
63157;SDS011;49381;49.338;8.794;2022-10-16T05:00:13;6.65;;;2.50;;
63157;SDS011;49381;49.338;8.794;2022-10-16T05:02:13;8.38;;;2.10;;
63157;SDS011;49381;49.338;8.794;2022-10-16T05:04:21;9.77;;;2.35;;
63157;SDS011;49381;49.338;8.794;2022-10-16T05:06:27;5.82;;;1.98;;
63157;SDS011;49381;49.338;8.794;2022-10-16T05:08:30;6.63;;;1.90;;
63157;SDS011;49381;49.338;8.794;2022-10-16T05:10:35;8.30;;;2.53;;
63157;SDS011;49381;49.338;8.794;2022-10-16T05:12:45;5.18;;;1.92;;
63157;SDS011;49381;49.338;8.794;2022-10-16T05:14:51;5.90;;;2.28;;
63157;SDS011;49381;49.338;8.794;2022-10-16T05:16:55;6.30;;;2.10;;
63157;SDS011;49381;49.338;8.794;2022-10-16T05:18:58;3.75;;;1.77;;
63157;SDS011;49381;49.338;8.794;2022-10-16T05:20:58;5.93;;;1.55;;
63157;SDS011;49381;49.338;8.794;2022-10-16T05:22:59;5.68;;;2.33;;
63157;SDS011;49381;49.338;8.794;2022-10-16T05:25:03;12.35;;;5.85;;
63157;SDS011;49381;49.338;8.794;2022-10-16T05:27:05;12.32;;;3.40;;
63157;SDS011;49381;49.338;8.794;2022-10-16T05:29:06;6.90;;;2.60;;
63157;SDS011;49381;49.338;8.794;2022-10-16T05:31:09;6.38;;;2.85;;
63157;SDS011;49381;49.338;8.794;2022-10-16T05:33:12;9.43;;;3.20;;
63157;SDS011;49381;49.338;8.794;2022-10-16T05:35:15;8.38;;;3.10;;
63157;SDS011;49381;49.338;8.794;2022-10-16T05:37:16;6.35;;;3.65;;
63157;SDS011;49381;49.338;8.794;2022-10-16T05:39:28;6.13;;;4.32;;
63157;SDS011;49381;49.338;8.794;2022-10-16T05:41:32;12.75;;;3.42;;
63157;SDS011;49381;49.338;8.794;2022-10-16T05:43:32;7.32;;;3.35;;
63157;SDS011;49381;49.338;8.794;2022-10-16T05:45:35;9.18;;;2.83;;
63157;SDS011;49381;49.338;8.794;2022-10-16T05:47:36;9.88;;;3.35;;
63157;SDS011;49381;49.338;8.794;2022-10-16T05:51:49;4.85;;;2.78;;
63157;SDS011;49381;49.338;8.794;2022-10-16T05:54:00;6.10;;;2.97;;
63157;SDS011;49381;49.338;8.794;2022-10-16T05:56:01;3.88;;;2.15;;
63157;SDS011;49381;49.338;8.794;2022-10-16T05:58:22;11.02;;;3.08;;
63157;SDS011;49381;49.338;8.794;2022-10-16T06:00:30;9.77;;;2.50;;
63157;SDS011;49381;49.338;8.794;2022-10-16T06:02:33;7.47;;;2.63;;
63157;SDS011;49381;49.338;8.794;2022-10-16T06:04:37;2.92;;;2.03;;
63157;SDS011;49381;49.338;8.794;2022-10-16T06:06:55;7.30;;;3.70;;
63157;SDS011;49381;49.338;8.794;2022-10-16T06:09:00;7.00;;;3.20;;
63157;SDS011;49381;49.338;8.794;2022-10-16T06:11:04;10.65;;;3.35;;
63157;SDS011;49381;49.338;8.794;2022-10-16T06:13:09;5.55;;;2.80;;
63157;SDS011;49381;49.338;8.794;2022-10-16T06:15:09;6.28;;;2.58;;
63157;SDS011;49381;49.338;8.794;2022-10-16T06:17:10;4.25;;;2.10;;
63157;SDS011;49381;49.338;8.794;2022-10-16T06:19:10;3.60;;;2.22;;
63157;SDS011;49381;49.338;8.794;2022-10-16T06:21:11;4.15;;;2.10;;
63157;SDS011;49381;49.338;8.794;2022-10-16T06:23:15;4.38;;;1.40;;
63157;SDS011;49381;49.338;8.794;2022-10-16T06:25:16;3.25;;;1.30;;
63157;SDS011;49381;49.338;8.794;2022-10-16T06:27:16;1.77;;;1.17;;
63157;SDS011;49381;49.338;8.794;2022-10-16T06:29:16;3.25;;;2.40;;
63157;SDS011;49381;49.338;8.794;2022-10-16T06:31:17;20.90;;;3.67;;
63157;SDS011;49381;49.338;8.794;2022-10-16T06:33:17;11.73;;;2.72;;
63157;SDS011;49381;49.338;8.794;2022-10-16T06:35:18;4.20;;;2.10;;
63157;SDS011;49381;49.338;8.794;2022-10-16T06:37:18;5.47;;;3.80;;
63157;SDS011;49381;49.338;8.794;2022-10-16T06:39:20;4.53;;;3.10;;
63157;SDS011;49381;49.338;8.794;2022-10-16T06:41:21;4.30;;;3.08;;
63157;SDS011;49381;49.338;8.794;2022-10-16T06:43:22;14.13;;;3.50;;
63157;SDS011;49381;49.338;8.794;2022-10-16T06:45:22;5.93;;;2.53;;
63157;SDS011;49381;49.338;8.794;2022-10-16T06:47:23;6.45;;;2.55;;
63157;SDS011;49381;49.338;8.794;2022-10-16T06:49:23;6.10;;;2.50;;
63157;SDS011;49381;49.338;8.794;2022-10-16T06:51:23;4.30;;;2.38;;
63157;SDS011;49381;49.338;8.794;2022-10-16T06:53:24;4.15;;;2.17;;
63157;SDS011;49381;49.338;8.794;2022-10-16T06:55:26;5.57;;;3.50;;
63157;SDS011;49381;49.338;8.794;2022-10-16T06:57:26;6.03;;;2.97;;
63157;SDS011;49381;49.338;8.794;2022-10-16T06:59:27;5.75;;;2.92;;
63157;SDS011;49381;49.338;8.794;2022-10-16T07:01:27;8.57;;;3.67;;
63157;SDS011;49381;49.338;8.794;2022-10-16T07:03:28;9.43;;;3.97;;
63157;SDS011;49381;49.338;8.794;2022-10-16T07:05:28;8.00;;;4.20;;
63157;SDS011;49381;49.338;8.794;2022-10-16T07:07:29;8.82;;;4.45;;
63157;SDS011;49381;49.338;8.794;2022-10-16T07:09:29;12.25;;;3.80;;
63157;SDS011;49381;49.338;8.794;2022-10-16T07:11:31;10.70;;;4.32;;
63157;SDS011;49381;49.338;8.794;2022-10-16T07:13:32;6.57;;;4.00;;
63157;SDS011;49381;49.338;8.794;2022-10-16T07:15:33;6.57;;;3.30;;
63157;SDS011;49381;49.338;8.794;2022-10-16T07:17:34;7.10;;;4.00;;
63157;SDS011;49381;49.338;8.794;2022-10-16T07:19:34;7.78;;;3.78;;
63157;SDS011;49381;49.338;8.794;2022-10-16T07:21:34;4.28;;;2.58;;
63157;SDS011;49381;49.338;8.794;2022-10-16T07:23:35;3.80;;;2.08;;
63157;SDS011;49381;49.338;8.794;2022-10-16T07:25:35;4.07;;;2.38;;
63157;SDS011;49381;49.338;8.794;2022-10-16T07:27:37;4.90;;;2.67;;
63157;SDS011;49381;49.338;8.794;2022-10-16T07:29:37;3.33;;;1.88;;
63157;SDS011;49381;49.338;8.794;2022-10-16T07:31:38;3.08;;;1.88;;
63157;SDS011;49381;49.338;8.794;2022-10-16T07:33:38;3.78;;;1.90;;
63157;SDS011;49381;49.338;8.794;2022-10-16T07:35:46;2.03;;;1.55;;
63157;SDS011;49381;49.338;8.794;2022-10-16T07:37:47;4.88;;;2.35;;
63157;SDS011;49381;49.338;8.794;2022-10-16T07:39:48;5.00;;;2.05;;
63157;SDS011;49381;49.338;8.794;2022-10-16T07:41:48;3.00;;;1.70;;
63157;SDS011;49381;49.338;8.794;2022-10-16T07:43:50;2.58;;;1.77;;
63157;SDS011;49381;49.338;8.794;2022-10-16T07:45:52;4.78;;;2.20;;
63157;SDS011;49381;49.338;8.794;2022-10-16T07:47:53;5.68;;;2.20;;
63157;SDS011;49381;49.338;8.794;2022-10-16T07:49:53;3.25;;;1.77;;
63157;SDS011;49381;49.338;8.794;2022-10-16T07:51:54;5.35;;;2.72;;
63157;SDS011;49381;49.338;8.794;2022-10-16T07:53:54;5.07;;;2.17;;
63157;SDS011;49381;49.338;8.794;2022-10-16T07:55:56;4.07;;;2.10;;
63157;SDS011;49381;49.338;8.794;2022-10-16T07:57:57;5.68;;;2.08;;
63157;SDS011;49381;49.338;8.794;2022-10-16T07:59:59;4.20;;;1.80;;
63157;SDS011;49381;49.338;8.794;2022-10-16T08:01:59;3.38;;;2.05;;
63157;SDS011;49381;49.338;8.794;2022-10-16T08:03:59;3.55;;;1.75;;
63157;SDS011;49381;49.338;8.794;2022-10-16T08:06:00;1.73;;;1.25;;
63157;SDS011;49381;49.338;8.794;2022-10-16T08:08:01;3.00;;;1.70;;
63157;SDS011;49381;49.338;8.794;2022-10-16T08:10:02;5.57;;;1.73;;
63157;SDS011;49381;49.338;8.794;2022-10-16T08:12:03;11.23;;;2.22;;
63157;SDS011;49381;49.338;8.794;2022-10-16T08:14:04;5.38;;;1.90;;
63157;SDS011;49381;49.338;8.794;2022-10-16T08:16:05;4.22;;;2.40;;
63157;SDS011;49381;49.338;8.794;2022-10-16T08:18:06;6.13;;;2.80;;
63157;SDS011;49381;49.338;8.794;2022-10-16T08:20:07;3.40;;;1.75;;
63157;SDS011;49381;49.338;8.794;2022-10-16T08:22:08;3.00;;;1.90;;
63157;SDS011;49381;49.338;8.794;2022-10-16T08:24:09;4.28;;;2.03;;
63157;SDS011;49381;49.338;8.794;2022-10-16T08:26:10;2.85;;;1.88;;
63157;SDS011;49381;49.338;8.794;2022-10-16T08:28:11;3.45;;;1.70;;
63157;SDS011;49381;49.338;8.794;2022-10-16T08:30:11;2.83;;;2.03;;
63157;SDS011;49381;49.338;8.794;2022-10-16T08:32:13;5.18;;;2.10;;
63157;SDS011;49381;49.338;8.794;2022-10-16T08:34:14;4.45;;;1.85;;
63157;SDS011;49381;49.338;8.794;2022-10-16T08:36:14;6.75;;;1.85;;
63157;SDS011;49381;49.338;8.794;2022-10-16T08:38:15;4.85;;;1.77;;
63157;SDS011;49381;49.338;8.794;2022-10-16T08:40:17;5.70;;;2.10;;
63157;SDS011;49381;49.338;8.794;2022-10-16T08:42:26;3.97;;;2.17;;
63157;SDS011;49381;49.338;8.794;2022-10-16T08:44:43;4.00;;;1.80;;
63157;SDS011;49381;49.338;8.794;2022-10-16T08:46:58;3.67;;;1.83;;
63157;SDS011;49381;49.338;8.794;2022-10-16T08:49:09;3.85;;;2.13;;
63157;SDS011;49381;49.338;8.794;2022-10-16T08:51:18;1.95;;;1.55;;
63157;SDS011;49381;49.338;8.794;2022-10-16T08:53:24;3.30;;;2.35;;
63157;SDS011;49381;49.338;8.794;2022-10-16T08:55:29;2.60;;;1.60;;
63157;SDS011;49381;49.338;8.794;2022-10-16T08:57:33;4.90;;;2.10;;
63157;SDS011;49381;49.338;8.794;2022-10-16T08:59:33;3.70;;;1.73;;
63157;SDS011;49381;49.338;8.794;2022-10-16T09:01:35;4.07;;;2.20;;
63157;SDS011;49381;49.338;8.794;2022-10-16T09:03:43;4.05;;;1.88;;
63157;SDS011;49381;49.338;8.794;2022-10-16T09:05:57;4.97;;;2.05;;
63157;SDS011;49381;49.338;8.794;2022-10-16T09:08:08;3.15;;;1.63;;
63157;SDS011;49381;49.338;8.794;2022-10-16T09:10:18;2.53;;;1.75;;
63157;SDS011;49381;49.338;8.794;2022-10-16T09:14:46;5.30;;;2.40;;
63157;SDS011;49381;49.338;8.794;2022-10-16T09:16:53;4.28;;;2.30;;
63157;SDS011;49381;49.338;8.794;2022-10-16T09:19:01;3.47;;;1.88;;
63157;SDS011;49381;49.338;8.794;2022-10-16T09:21:12;4.15;;;2.08;;
63157;SDS011;49381;49.338;8.794;2022-10-16T09:23:17;3.67;;;1.98;;
63157;SDS011;49381;49.338;8.794;2022-10-16T09:25:20;4.90;;;1.88;;
63157;SDS011;49381;49.338;8.794;2022-10-16T09:27:21;3.20;;;1.70;;
63157;SDS011;49381;49.338;8.794;2022-10-16T09:29:22;2.90;;;1.55;;
63157;SDS011;49381;49.338;8.794;2022-10-16T09:31:22;2.63;;;1.80;;
63157;SDS011;49381;49.338;8.794;2022-10-16T09:33:23;3.58;;;1.80;;
63157;SDS011;49381;49.338;8.794;2022-10-16T09:35:31;3.33;;;1.58;;
63157;SDS011;49381;49.338;8.794;2022-10-16T09:37:36;4.05;;;1.70;;
63157;SDS011;49381;49.338;8.794;2022-10-16T09:39:43;6.22;;;1.88;;
63157;SDS011;49381;49.338;8.794;2022-10-16T09:41:44;2.92;;;1.50;;
63157;SDS011;49381;49.338;8.794;2022-10-16T09:43:46;3.08;;;1.20;;
63157;SDS011;49381;49.338;8.794;2022-10-16T09:45:53;2.20;;;1.40;;
63157;SDS011;49381;49.338;8.794;2022-10-16T09:47:57;2.40;;;1.20;;
63157;SDS011;49381;49.338;8.794;2022-10-16T09:49:58;3.03;;;1.20;;
63157;SDS011;49381;49.338;8.794;2022-10-16T09:52:11;3.28;;;1.50;;
63157;SDS011;49381;49.338;8.794;2022-10-16T09:54:19;3.00;;;1.63;;
63157;SDS011;49381;49.338;8.794;2022-10-16T09:56:24;3.83;;;1.60;;
63157;SDS011;49381;49.338;8.794;2022-10-16T09:58:31;4.03;;;1.45;;
63157;SDS011;49381;49.338;8.794;2022-10-16T10:00:38;2.25;;;1.50;;
63157;SDS011;49381;49.338;8.794;2022-10-16T10:02:43;7.25;;;2.22;;
63157;SDS011;49381;49.338;8.794;2022-10-16T10:04:47;3.78;;;1.33;;
63157;SDS011;49381;49.338;8.794;2022-10-16T10:06:53;3.80;;;1.45;;
63157;SDS011;49381;49.338;8.794;2022-10-16T10:08:56;3.92;;;1.50;;
63157;SDS011;49381;49.338;8.794;2022-10-16T10:10:59;3.05;;;1.70;;
63157;SDS011;49381;49.338;8.794;2022-10-16T10:12:59;4.30;;;1.30;;
63157;SDS011;49381;49.338;8.794;2022-10-16T10:15:03;2.42;;;1.20;;
63157;SDS011;49381;49.338;8.794;2022-10-16T10:17:10;7.30;;;1.60;;
63157;SDS011;49381;49.338;8.794;2022-10-16T10:19:14;5.82;;;1.58;;
63157;SDS011;49381;49.338;8.794;2022-10-16T10:21:16;5.45;;;1.58;;
63157;SDS011;49381;49.338;8.794;2022-10-16T10:23:20;5.80;;;1.58;;
63157;SDS011;49381;49.338;8.794;2022-10-16T10:25:24;4.22;;;1.35;;
63157;SDS011;49381;49.338;8.794;2022-10-16T10:27:35;2.45;;;1.50;;
63157;SDS011;49381;49.338;8.794;2022-10-16T10:29:45;3.03;;;1.13;;
63157;SDS011;49381;49.338;8.794;2022-10-16T10:31:55;5.75;;;1.25;;
63157;SDS011;49381;49.338;8.794;2022-10-16T10:34:04;3.38;;;1.40;;
63157;SDS011;49381;49.338;8.794;2022-10-16T10:36:23;2.33;;;1.00;;
63157;SDS011;49381;49.338;8.794;2022-10-16T10:38:34;2.15;;;1.40;;
63157;SDS011;49381;49.338;8.794;2022-10-16T10:40:43;8.85;;;1.48;;
63157;SDS011;49381;49.338;8.794;2022-10-16T10:42:52;3.63;;;1.23;;
63157;SDS011;49381;49.338;8.794;2022-10-16T10:45:08;5.40;;;1.40;;
63157;SDS011;49381;49.338;8.794;2022-10-16T10:47:18;8.02;;;1.70;;
63157;SDS011;49381;49.338;8.794;2022-10-16T10:49:29;4.55;;;1.48;;
63157;SDS011;49381;49.338;8.794;2022-10-16T10:51:48;6.20;;;1.50;;
63157;SDS011;49381;49.338;8.794;2022-10-16T10:54:02;3.20;;;1.55;;
63157;SDS011;49381;49.338;8.794;2022-10-16T10:56:14;6.45;;;1.30;;
63157;SDS011;49381;49.338;8.794;2022-10-16T10:58:28;3.83;;;1.35;;
63157;SDS011;49381;49.338;8.794;2022-10-16T11:00:42;13.43;;;2.13;;
63157;SDS011;49381;49.338;8.794;2022-10-16T11:02:52;6.40;;;1.92;;
63157;SDS011;49381;49.338;8.794;2022-10-16T11:05:16;7.70;;;1.50;;
63157;SDS011;49381;49.338;8.794;2022-10-16T11:09:26;4.00;;;1.73;;
63157;SDS011;49381;49.338;8.794;2022-10-16T11:11:31;5.57;;;1.80;;
63157;SDS011;49381;49.338;8.794;2022-10-16T11:13:37;2.95;;;1.67;;
63157;SDS011;49381;49.338;8.794;2022-10-16T11:15:42;4.88;;;1.45;;
63157;SDS011;49381;49.338;8.794;2022-10-16T11:17:45;4.18;;;1.40;;
63157;SDS011;49381;49.338;8.794;2022-10-16T11:19:51;4.22;;;1.50;;
63157;SDS011;49381;49.338;8.794;2022-10-16T11:24:16;4.38;;;1.45;;
63157;SDS011;49381;49.338;8.794;2022-10-16T11:26:21;5.80;;;1.65;;
63157;SDS011;49381;49.338;8.794;2022-10-16T11:28:27;6.28;;;1.48;;
63157;SDS011;49381;49.338;8.794;2022-10-16T11:30:31;4.43;;;1.75;;
63157;SDS011;49381;49.338;8.794;2022-10-16T11:32:42;3.42;;;1.50;;
63157;SDS011;49381;49.338;8.794;2022-10-16T11:34:53;3.65;;;1.50;;
63157;SDS011;49381;49.338;8.794;2022-10-16T11:36:58;6.25;;;1.70;;
63157;SDS011;49381;49.338;8.794;2022-10-16T11:39:08;6.70;;;1.58;;
63157;SDS011;49381;49.338;8.794;2022-10-16T11:41:20;4.15;;;1.65;;
63157;SDS011;49381;49.338;8.794;2022-10-16T11:43:27;6.07;;;1.58;;
63157;SDS011;49381;49.338;8.794;2022-10-16T11:45:33;2.40;;;1.23;;
63157;SDS011;49381;49.338;8.794;2022-10-16T11:47:40;5.75;;;1.60;;
63157;SDS011;49381;49.338;8.794;2022-10-16T11:49:43;3.92;;;1.25;;
63157;SDS011;49381;49.338;8.794;2022-10-16T11:51:48;4.35;;;1.50;;
63157;SDS011;49381;49.338;8.794;2022-10-16T11:53:57;3.15;;;1.50;;
63157;SDS011;49381;49.338;8.794;2022-10-16T11:56:01;3.15;;;1.58;;
63157;SDS011;49381;49.338;8.794;2022-10-16T11:58:03;4.38;;;1.63;;
63157;SDS011;49381;49.338;8.794;2022-10-16T12:00:08;5.70;;;1.20;;
63157;SDS011;49381;49.338;8.794;2022-10-16T12:02:27;3.72;;;1.23;;
63157;SDS011;49381;49.338;8.794;2022-10-16T12:04:34;3.60;;;1.50;;
63157;SDS011;49381;49.338;8.794;2022-10-16T12:06:42;2.58;;;1.58;;
63157;SDS011;49381;49.338;8.794;2022-10-16T12:08:46;6.97;;;2.00;;
63157;SDS011;49381;49.338;8.794;2022-10-16T12:10:47;3.00;;;1.40;;
63157;SDS011;49381;49.338;8.794;2022-10-16T12:12:48;5.13;;;1.30;;
63157;SDS011;49381;49.338;8.794;2022-10-16T12:14:58;4.07;;;1.40;;
63157;SDS011;49381;49.338;8.794;2022-10-16T12:17:01;3.63;;;1.40;;
63157;SDS011;49381;49.338;8.794;2022-10-16T12:19:12;4.93;;;1.30;;
63157;SDS011;49381;49.338;8.794;2022-10-16T12:21:14;2.15;;;1.23;;
63157;SDS011;49381;49.338;8.794;2022-10-16T12:23:18;4.35;;;1.65;;
63157;SDS011;49381;49.338;8.794;2022-10-16T12:25:21;4.03;;;1.50;;
63157;SDS011;49381;49.338;8.794;2022-10-16T12:27:25;5.00;;;1.60;;
63157;SDS011;49381;49.338;8.794;2022-10-16T12:29:32;9.32;;;1.60;;
63157;SDS011;49381;49.338;8.794;2022-10-16T12:31:36;5.45;;;1.63;;
63157;SDS011;49381;49.338;8.794;2022-10-16T12:33:39;6.28;;;1.88;;
63157;SDS011;49381;49.338;8.794;2022-10-16T12:35:44;5.68;;;1.63;;
63157;SDS011;49381;49.338;8.794;2022-10-16T12:37:44;5.47;;;1.60;;
63157;SDS011;49381;49.338;8.794;2022-10-16T12:39:45;6.63;;;1.60;;
63157;SDS011;49381;49.338;8.794;2022-10-16T12:41:47;7.75;;;1.95;;
63157;SDS011;49381;49.338;8.794;2022-10-16T12:43:47;2.95;;;1.42;;
63157;SDS011;49381;49.338;8.794;2022-10-16T12:45:48;3.53;;;1.63;;
63157;SDS011;49381;49.338;8.794;2022-10-16T12:47:59;5.15;;;1.67;;
63157;SDS011;49381;49.338;8.794;2022-10-16T12:50:01;5.05;;;1.73;;
63157;SDS011;49381;49.338;8.794;2022-10-16T12:52:02;3.70;;;1.60;;